Time;durP1;ratioP1;P1;durP2;ratioP2;P2;SDS_P1;SDS_P2;PMS_P1;PMS_P2;Temp;Humidity;BMP_temperature;BMP_pressure;BME280_temperature;BME280_humidity;BME280_pressure;Samples;Min_cycle;Max_cycle;Signal;HPM_P1;HPM_P2
2022/04/01 00:01:39;;;;;;;21.98;18.55;;;;;;;;;;4898112;29;20578;-76
2022/04/01 00:04:05;;;;;;;21.58;17.00;;;;;;;;;;4898693;29;20187;-77
2022/04/01 00:06:30;;;;;;;21.67;17.63;;;;;;;;;;4898580;29;20183;-79
2022/04/01 00:08:56;;;;;;;19.03;15.87;;;;;;;;;;4898391;29;20186;-78
2022/04/01 00:11:22;;;;;;;21.33;17.10;;;;;;;;;;4898098;29;20965;-77
2022/04/01 00:13:48;;;;;;;17.57;15.43;;;;;;;;;;4898394;29;20440;-77
2022/04/01 00:16:16;;;;;;;19.30;16.43;;;;;;;;;;4898434;29;20512;-78
2022/04/01 00:18:42;;;;;;;19.63;16.55;;;;;;;;;;4898357;29;20890;-78
2022/04/01 00:21:08;;;;;;;22.20;16.20;;;;;;;;;;4898094;29;20293;-76
2022/04/01 00:23:33;;;;;;;18.77;15.00;;;;;;;;;;4897171;29;20978;-76
2022/04/01 00:26:00;;;;;;;22.77;16.70;;;;;;;;;;4898404;29;20445;-78
2022/04/01 00:28:26;;;;;;;17.02;14.25;;;;;;;;;;4898231;29;20515;-77
2022/04/01 00:30:54;;;;;;;20.45;15.93;;;;;;;;;;4897911;29;20200;-77
2022/04/01 00:33:20;;;;;;;18.52;15.68;;;;;;;;;;4897595;29;20194;-76
2022/04/01 00:35:46;;;;;;;18.10;15.63;;;;;;;;;;4898290;29;20559;-78
2022/04/01 00:38:13;;;;;;;16.23;14.13;;;;;;;;;;4898084;29;20471;-77
2022/04/01 00:40:39;;;;;;;19.27;15.10;;;;;;;;;;4898054;29;20524;-76
2022/04/01 00:43:06;;;;;;;18.15;14.77;;;;;;;;;;4898050;29;20215;-78
2022/04/01 00:45:32;;;;;;;18.85;16.00;;;;;;;;;;4898214;29;20185;-75
2022/04/01 00:48:02;;;;;;;17.80;15.40;;;;;;;;;;4898392;29;20191;-77
2022/04/01 00:50:32;;;;;;;21.35;16.10;;;;;;;;;;4897772;29;20428;-77
2022/04/01 00:52:58;;;;;;;18.38;15.75;;;;;;;;;;4898309;29;20256;-76
2022/04/01 00:55:25;;;;;;;20.30;16.58;;;;;;;;;;4898074;29;20182;-77
2022/04/01 00:57:51;;;;;;;21.75;17.17;;;;;;;;;;4897995;29;20196;-75
2022/04/01 01:00:19;;;;;;;17.75;15.77;;;;;;;;;;4897615;29;20212;-77
2022/04/01 01:02:45;;;;;;;21.75;16.58;;;;;;;;;;4897759;29;20228;-76
2022/04/01 01:05:11;;;;;;;21.67;16.45;;;;;;;;;;4897863;29;20192;-78
2022/04/01 01:07:40;;;;;;;21.47;16.83;;;;;;;;;;4897823;29;20642;-75
2022/04/01 01:10:06;;;;;;;20.10;16.75;;;;;;;;;;4897631;29;20497;-76
2022/04/01 01:12:32;;;;;;;21.30;17.67;;;;;;;;;;4897530;29;20202;-77
2022/04/01 01:15:07;;;;;;;18.92;16.85;;;;;;;;;;4897880;29;20186;-76
2022/04/01 01:17:33;;;;;;;22.70;17.33;;;;;;;;;;4897712;29;20520;-76
2022/04/01 01:19:59;;;;;;;21.47;17.90;;;;;;;;;;4897955;29;20180;-76
2022/04/01 01:22:25;;;;;;;21.42;17.08;;;;;;;;;;4897288;29;20515;-76
2022/04/01 01:24:52;;;;;;;23.50;18.00;;;;;;;;;;4897877;29;20223;-75
2022/04/01 01:27:18;;;;;;;20.42;17.13;;;;;;;;;;4897644;29;20764;-77
2022/04/01 01:29:45;;;;;;;25.40;18.50;;;;;;;;;;4897964;29;20184;-76
2022/04/01 01:32:14;;;;;;;21.80;18.20;;;;;;;;;;4897234;29;20247;-77
2022/04/01 01:34:40;;;;;;;27.10;19.95;;;;;;;;;;4897619;29;20638;-76
2022/04/01 01:37:06;;;;;;;26.52;20.33;;;;;;;;;;4897837;29;20193;-77
2022/04/01 01:39:32;;;;;;;28.50;21.25;;;;;;;;;;4897691;29;20675;-76
2022/04/01 01:41:58;;;;;;;26.40;22.30;;;;;;;;;;4897313;29;20299;-76
2022/04/01 01:44:24;;;;;;;26.33;20.23;;;;;;;;;;4898364;29;20194;-77
2022/04/01 01:46:51;;;;;;;26.42;19.80;;;;;;;;;;4901145;29;20176;-76
2022/04/01 01:49:20;;;;;;;24.70;18.95;;;;;;;;;;4901096;29;20193;-76
2022/04/01 01:54:43;;;;;;;26.88;22.17;;;;;;;;;;4901274;29;20248;-76
2022/04/01 01:57:09;;;;;;;26.15;21.10;;;;;;;;;;4900753;29;20177;-77
2022/04/01 01:59:35;;;;;;;24.88;20.40;;;;;;;;;;4900713;29;20214;-75
2022/04/01 02:02:05;;;;;;;22.37;19.30;;;;;;;;;;4900167;29;20739;-76
2022/04/01 02:04:31;;;;;;;24.25;20.30;;;;;;;;;;4900701;29;20792;-77
2022/04/01 02:06:57;;;;;;;23.17;19.40;;;;;;;;;;4900782;29;20185;-77
2022/04/01 02:09:23;;;;;;;23.42;19.05;;;;;;;;;;4900598;29;20923;-75
2022/04/01 02:11:49;;;;;;;22.27;18.80;;;;;;;;;;4899795;29;20281;-77
2022/04/01 02:14:15;;;;;;;22.20;18.63;;;;;;;;;;4900369;29;20213;-75
2022/04/01 02:16:43;;;;;;;21.47;18.57;;;;;;;;;;4900535;29;20185;-75
2022/04/01 02:19:09;;;;;;;23.40;19.02;;;;;;;;;;4900366;29;20492;-76
2022/04/01 02:21:35;;;;;;;21.50;18.30;;;;;;;;;;4899935;29;20208;-76
2022/04/01 02:24:01;;;;;;;22.77;19.17;;;;;;;;;;4898887;29;20811;-75
2022/04/01 02:26:27;;;;;;;22.93;18.60;;;;;;;;;;4900389;29;20184;-75
2022/04/01 02:28:59;;;;;;;21.87;17.80;;;;;;;;;;4900322;29;20414;-76
2022/04/01 02:31:25;;;;;;;23.63;18.73;;;;;;;;;;4898714;29;20441;-75
2022/04/01 02:33:51;;;;;;;22.02;18.30;;;;;;;;;;4900281;29;20186;-75
2022/04/01 02:36:17;;;;;;;28.05;19.80;;;;;;;;;;4900237;29;20188;-76
2022/04/01 02:38:43;;;;;;;22.80;18.80;;;;;;;;;;4900174;29;20572;-74
2022/04/01 02:41:13;;;;;;;21.17;18.75;;;;;;;;;;4899798;29;20588;-74
2022/04/01 02:43:39;;;;;;;24.20;18.77;;;;;;;;;;4900064;29;20213;-75
2022/04/01 02:46:05;;;;;;;21.07;18.57;;;;;;;;;;4898736;29;20228;-77
2022/04/01 02:48:32;;;;;;;22.17;18.52;;;;;;;;;;4900227;29;20899;-76
2022/04/01 02:50:58;;;;;;;22.40;19.23;;;;;;;;;;4899633;29;20200;-76
2022/04/01 02:53:24;;;;;;;22.08;17.83;;;;;;;;;;4899849;29;20209;-77
2022/04/01 02:55:50;;;;;;;25.45;19.80;;;;;;;;;;4899485;29;20181;-76
2022/04/01 02:58:16;;;;;;;26.83;21.10;;;;;;;;;;4899686;29;20196;-75
2022/04/01 03:00:42;;;;;;;20.85;17.90;;;;;;;;;;4898230;29;20538;-77
2022/04/01 03:03:09;;;;;;;26.50;20.17;;;;;;;;;;4899553;29;20209;-76
2022/04/01 03:05:39;;;;;;;22.65;15.82;;;;;;;;;;4898421;29;20173;-78
2022/04/01 03:08:05;;;;;;;25.45;19.17;;;;;;;;;;4899492;29;20240;-76
2022/04/01 03:10:32;;;;;;;23.90;19.02;;;;;;;;;;4899109;29;20195;-73
2022/04/01 03:12:58;;;;;;;25.65;18.55;;;;;;;;;;4899631;29;20182;-76
2022/04/01 03:15:24;;;;;;;24.70;20.02;;;;;;;;;;4899418;29;20190;-77
2022/04/01 03:17:50;;;;;;;21.05;18.25;;;;;;;;;;4899457;29;20190;-74
2022/04/01 03:20:17;;;;;;;24.00;18.85;;;;;;;;;;4899031;29;20619;-77
2022/04/01 03:22:44;;;;;;;24.60;19.30;;;;;;;;;;4898814;29;20281;-74
2022/04/01 03:25:13;;;;;;;22.00;17.75;;;;;;;;;;4899421;29;20185;-74
2022/04/01 03:27:39;;;;;;;24.13;19.20;;;;;;;;;;4899195;29;20183;-76
2022/04/01 03:30:09;;;;;;;20.05;16.88;;;;;;;;;;4899092;29;20677;-75
2022/04/01 03:32:35;;;;;;;22.02;18.75;;;;;;;;;;4899054;29;20209;-76
2022/04/01 03:35:01;;;;;;;21.10;17.52;;;;;;;;;;4899064;29;20204;-77
2022/04/01 03:37:27;;;;;;;21.83;17.30;;;;;;;;;;4899157;29;20195;-77
2022/04/01 03:39:53;;;;;;;20.83;17.55;;;;;;;;;;4899080;29;20429;-74
2022/04/01 03:42:20;;;;;;;20.50;17.05;;;;;;;;;;4898592;29;20228;-78
2022/04/01 03:44:46;;;;;;;18.90;16.70;;;;;;;;;;4898828;29;20193;-75
2022/04/01 03:47:18;;;;;;;23.80;18.73;;;;;;;;;;4899090;29;20196;-76
2022/04/01 03:49:50;;;;;;;20.80;16.95;;;;;;;;;;4898921;29;20479;-76
2022/04/01 03:52:16;;;;;;;20.60;15.88;;;;;;;;;;4898366;29;20202;-76
2022/04/01 03:54:43;;;;;;;19.55;15.95;;;;;;;;;;4898552;29;20256;-76
2022/04/01 03:57:11;;;;;;;20.60;17.17;;;;;;;;;;4898715;29;20176;-75
2022/04/01 03:59:44;;;;;;;21.15;17.38;;;;;;;;;;4898844;29;20275;-75
2022/04/01 04:02:13;;;;;;;20.13;18.05;;;;;;;;;;4898124;29;20203;-77
2022/04/01 04:04:39;;;;;;;21.35;17.20;;;;;;;;;;4898545;29;20181;-78
2022/04/01 04:07:09;;;;;;;17.52;15.68;;;;;;;;;;4898416;29;20189;-77
2022/04/01 04:09:38;;;;;;;20.38;17.83;;;;;;;;;;4897770;29;20184;-76
2022/04/01 04:12:05;;;;;;;18.77;16.77;;;;;;;;;;4897980;29;20254;-74
2022/04/01 04:14:31;;;;;;;20.67;17.05;;;;;;;;;;4898444;29;20205;-77
2022/04/01 04:16:59;;;;;;;17.65;15.75;;;;;;;;;;4898239;29;20509;-75
2022/04/01 04:19:32;;;;;;;19.20;16.23;;;;;;;;;;4898337;29;20663;-75
2022/04/01 04:22:09;;;;;;;17.52;15.63;;;;;;;;;;4897827;29;20211;-75
2022/04/01 04:24:49;;;;;;;17.38;15.60;;;;;;;;;;4898280;29;20215;-75
2022/04/01 04:27:18;;;;;;;16.23;13.95;;;;;;;;;;4898243;29;20188;-76
2022/04/01 04:29:49;;;;;;;17.42;14.60;;;;;;;;;;4898535;29;20181;-77
2022/04/01 04:32:33;;;;;;;17.05;14.80;;;;;;;;;;4898109;29;20555;-76
2022/04/01 04:35:00;;;;;;;16.08;13.43;;;;;;;;;;4898247;29;20181;-76
2022/04/01 04:37:28;;;;;;;17.05;14.18;;;;;;;;;;4898336;29;20524;-77
2022/04/01 04:39:54;;;;;;;17.08;14.60;;;;;;;;;;4898158;29;20185;-75
2022/04/01 04:42:21;;;;;;;15.65;12.60;;;;;;;;;;4897647;29;20239;-76
2022/04/01 04:44:49;;;;;;;15.55;13.85;;;;;;;;;;4898234;29;20176;-76
2022/04/01 04:47:15;;;;;;;20.40;13.07;;;;;;;;;;4898000;29;20185;-75
2022/04/01 04:49:45;;;;;;;14.68;13.20;;;;;;;;;;4898178;29;20309;-77
2022/04/01 04:52:12;;;;;;;14.65;13.15;;;;;;;;;;4897595;29;20856;-77
2022/04/01 04:54:41;;;;;;;14.63;12.95;;;;;;;;;;4898226;29;20268;-75
2022/04/01 04:57:07;;;;;;;15.18;12.60;;;;;;;;;;4896564;29;20193;-75
2022/04/01 04:59:35;;;;;;;12.77;11.43;;;;;;;;;;4898047;29;20193;-74
2022/04/01 05:02:05;;;;;;;15.30;11.55;;;;;;;;;;4897506;29;20208;-77
2022/04/01 05:04:32;;;;;;;13.40;11.98;;;;;;;;;;4898052;29;20189;-75
2022/04/01 05:07:17;;;;;;;14.45;12.30;;;;;;;;;;4897881;29;20260;-76
2022/04/01 05:09:51;;;;;;;15.98;12.40;;;;;;;;;;4897934;29;20634;-76
2022/04/01 05:12:33;;;;;;;14.00;11.73;;;;;;;;;;4897712;29;20216;-73
2022/04/01 05:15:09;;;;;;;13.80;11.90;;;;;;;;;;4896455;29;20553;-74
2022/04/01 05:17:36;;;;;;;10.93;9.82;;;;;;;;;;4897778;29;20262;-76
2022/04/01 05:20:15;;;;;;;15.35;11.20;;;;;;;;;;4899326;29;20200;-74
2022/04/01 05:22:50;;;;;;;12.23;10.98;;;;;;;;;;4901170;29;20215;-74
2022/04/01 05:25:17;;;;;;;11.50;10.32;;;;;;;;;;4900101;29;20194;-77
2022/04/01 05:27:47;;;;;;;12.05;10.75;;;;;;;;;;4901193;29;20182;-75
2022/04/01 05:30:16;;;;;;;11.88;10.70;;;;;;;;;;4901276;29;20176;-75
2022/04/01 05:33:01;;;;;;;11.27;10.10;;;;;;;;;;4901164;29;20209;-74
2022/04/01 05:35:29;;;;;;;12.68;10.13;;;;;;;;;;4901168;29;20658;-75
2022/04/01 05:37:56;;;;;;;12.27;10.85;;;;;;;;;;4901192;29;20187;-74
2022/04/01 05:40:22;;;;;;;11.88;10.32;;;;;;;;;;4900789;29;20191;-74
2022/04/01 05:42:48;;;;;;;12.13;10.65;;;;;;;;;;4901050;29;20215;-76
2022/04/01 05:45:16;;;;;;;11.70;9.35;;;;;;;;;;4901118;29;20185;-74
2022/04/01 05:47:42;;;;;;;10.85;9.63;;;;;;;;;;4901055;29;20225;-75
2022/04/01 05:50:08;;;;;;;12.02;9.50;;;;;;;;;;4901068;29;20238;-74
2022/04/01 05:52:36;;;;;;;10.05;9.15;;;;;;;;;;4899559;29;20208;-77
2022/04/01 05:55:03;;;;;;;11.00;9.02;;;;;;;;;;4900886;29;20185;-73
2022/04/01 05:57:29;;;;;;;12.02;10.13;;;;;;;;;;4900733;29;20563;-76
2022/04/01 05:59:55;;;;;;;10.40;9.40;;;;;;;;;;4900740;29;20225;-76
2022/04/01 06:02:21;;;;;;;10.23;9.20;;;;;;;;;;4900395;29;20244;-75
2022/04/01 06:04:56;;;;;;;10.07;9.07;;;;;;;;;;4900809;29;20196;-76
2022/04/01 06:07:23;;;;;;;9.80;8.77;;;;;;;;;;4900736;29;20642;-77
2022/04/01 06:10:01;;;;;;;9.45;8.55;;;;;;;;;;4900552;29;20229;-73
2022/04/01 06:12:33;;;;;;;9.75;8.10;;;;;;;;;;4900308;29;20607;-76
2022/04/01 06:15:31;;;;;;;10.30;8.50;;;;;;;;;;4900467;29;20199;-75
2022/04/01 06:18:03;;;;;;;11.95;8.55;;;;;;;;;;4899231;29;20197;-75
2022/04/01 06:20:33;;;;;;;8.52;7.63;;;;;;;;;;4900320;29;20180;-78
2022/04/01 06:23:00;;;;;;;8.18;7.40;;;;;;;;;;4900190;29;20214;-75
2022/04/01 06:25:30;;;;;;;9.75;8.75;;;;;;;;;;4900440;29;20184;-77
2022/04/01 06:28:00;;;;;;;9.45;8.55;;;;;;;;;;4900231;29;20561;-75
2022/04/01 06:30:27;;;;;;;8.75;7.85;;;;;;;;;;4899684;29;20248;-74
2022/04/01 06:32:53;;;;;;;10.07;8.93;;;;;;;;;;4899906;29;20204;-77
2022/04/01 06:35:31;;;;;;;8.77;7.80;;;;;;;;;;4899270;29;20181;-76
2022/04/01 06:38:01;;;;;;;9.23;8.32;;;;;;;;;;4900278;29;20213;-73
2022/04/01 06:40:37;;;;;;;12.20;8.43;;;;;;;;;;4899978;29;20176;-76
2022/04/01 06:43:04;;;;;;;9.52;8.55;;;;;;;;;;4900268;29;20250;-76
2022/04/01 06:45:30;;;;;;;9.40;8.48;;;;;;;;;;4900182;29;20181;-78
2022/04/01 06:47:56;;;;;;;9.80;8.45;;;;;;;;;;4899926;29;20184;-78
2022/04/01 06:50:22;;;;;;;11.63;8.90;;;;;;;;;;4899664;29;20345;-76
2022/04/01 06:52:48;;;;;;;10.35;9.23;;;;;;;;;;4899874;29;20440;-77
2022/04/01 06:55:14;;;;;;;10.63;8.13;;;;;;;;;;4899853;29;20208;-76
2022/04/01 06:57:41;;;;;;;8.57;7.75;;;;;;;;;;4899995;29;20904;-76
2022/04/01 07:00:09;;;;;;;10.35;8.20;;;;;;;;;;4899574;29;20264;-76
2022/04/01 07:02:36;;;;;;;8.48;7.63;;;;;;;;;;4899543;29;20211;-77
2022/04/01 07:05:02;;;;;;;8.65;7.85;;;;;;;;;;4899800;29;20646;-75
2022/04/01 07:07:28;;;;;;;9.52;8.57;;;;;;;;;;4899749;29;20264;-78
2022/04/01 07:09:54;;;;;;;8.52;7.63;;;;;;;;;;4899637;29;20233;-77
2022/04/01 07:12:21;;;;;;;9.40;7.13;;;;;;;;;;4899155;29;20220;-76
2022/04/01 07:14:47;;;;;;;8.95;7.97;;;;;;;;;;4899779;29;20835;-77
2022/04/01 07:17:13;;;;;;;8.70;7.80;;;;;;;;;;4899470;29;20187;-75
2022/04/01 07:19:39;;;;;;;7.80;7.00;;;;;;;;;;4899596;29;20275;-76
2022/04/01 07:22:06;;;;;;;6.37;5.37;;;;;;;;;;4898612;29;20471;-75
2022/04/01 07:24:32;;;;;;;9.43;6.93;;;;;;;;;;4898011;29;20437;-76
2022/04/01 07:26:58;;;;;;;7.78;7.05;;;;;;;;;;4901428;29;20243;-75
2022/04/01 07:29:24;;;;;;;8.18;7.38;;;;;;;;;;4915411;29;20182;-75
2022/04/01 07:34:37;;;;;;;7.32;6.63;;;;;;;;;;4899182;29;20250;-76
2022/04/01 07:37:03;;;;;;;7.30;6.60;;;;;;;;;;4899217;29;20192;-78
2022/04/01 07:39:29;;;;;;;7.90;6.47;;;;;;;;;;4897854;29;20640;-76
2022/04/01 07:41:55;;;;;;;8.80;6.97;;;;;;;;;;4898353;29;20196;-76
2022/04/01 07:44:22;;;;;;;7.63;6.33;;;;;;;;;;4898959;29;20526;-76
2022/04/01 07:46:48;;;;;;;9.15;7.35;;;;;;;;;;4897818;29;20936;-75
2022/04/01 07:49:14;;;;;;;8.52;6.53;;;;;;;;;;4899049;29;20180;-74
2022/04/01 07:51:40;;;;;;;8.13;7.28;;;;;;;;;;4898441;29;20200;-76
2022/04/01 07:54:06;;;;;;;7.57;6.80;;;;;;;;;;4898980;29;20180;-75
2022/04/01 07:56:32;;;;;;;8.38;7.13;;;;;;;;;;4898785;29;20181;-76
2022/04/01 07:58:59;;;;;;;7.55;6.78;;;;;;;;;;4897530;29;20733;-77
2022/04/01 08:01:25;;;;;;;6.90;6.20;;;;;;;;;;4898473;29;20196;-77
2022/04/01 08:03:51;;;;;;;8.50;7.25;;;;;;;;;;4898498;29;20796;-73
2022/04/01 08:06:17;;;;;;;7.90;7.10;;;;;;;;;;4898659;29;20277;-74
2022/04/01 08:08:43;;;;;;;9.53;6.63;;;;;;;;;;4898300;29;20780;-73
2022/04/01 08:11:10;;;;;;;6.43;5.83;;;;;;;;;;4898095;29;20446;-77
2022/04/01 08:13:36;;;;;;;7.53;6.65;;;;;;;;;;4898517;29;20436;-75
2022/04/01 08:16:02;;;;;;;6.95;5.50;;;;;;;;;;4898392;29;20188;-74
2022/04/01 08:18:28;;;;;;;7.45;6.50;;;;;;;;;;4898382;29;20184;-75
2022/04/01 08:20:54;;;;;;;7.50;6.70;;;;;;;;;;4896775;29;20287;-77
2022/04/01 08:23:20;;;;;;;6.55;5.60;;;;;;;;;;4898157;29;20651;-75
2022/04/01 08:25:47;;;;;;;5.95;5.30;;;;;;;;;;4898395;29;20175;-78
2022/04/01 08:28:13;;;;;;;6.40;5.80;;;;;;;;;;4898193;29;20176;-75
2022/04/01 08:30:40;;;;;;;6.20;5.60;;;;;;;;;;4897796;29;20653;-77
2022/04/01 08:33:06;;;;;;;7.32;6.63;;;;;;;;;;4898251;29;20180;-74
2022/04/01 08:35:33;;;;;;;5.65;5.07;;;;;;;;;;4897067;29;20684;-78
2022/04/01 08:37:59;;;;;;;7.75;5.95;;;;;;;;;;4897072;29;20188;-74
2022/04/01 08:40:25;;;;;;;5.65;5.15;;;;;;;;;;4898111;29;20589;-78
2022/04/01 08:42:51;;;;;;;6.35;5.75;;;;;;;;;;4897051;29;20281;-76
2022/04/01 08:45:18;;;;;;;6.38;5.78;;;;;;;;;;4898093;29;20189;-76
2022/04/01 08:47:44;;;;;;;5.65;5.15;;;;;;;;;;4898341;29;20182;-78
2022/04/01 08:50:10;;;;;;;5.68;5.07;;;;;;;;;;4897801;29;20366;-76
2022/04/01 08:52:37;;;;;;;6.45;5.85;;;;;;;;;;4898051;29;20210;-73
2022/04/01 08:55:04;;;;;;;5.97;5.38;;;;;;;;;;4899873;29;20235;-78
2022/04/01 08:57:39;;;;;;;6.32;5.72;;;;;;;;;;4902043;29;20191;-73
2022/04/01 09:00:26;;;;;;;6.65;6.03;;;;;;;;;;4901884;29;20239;-77
2022/04/01 09:02:59;;;;;;;6.72;6.13;;;;;;;;;;4901133;29;20227;-76
2022/04/01 09:05:26;;;;;;;6.93;6.25;;;;;;;;;;4901992;29;20251;-75
2022/04/01 09:08:02;;;;;;;6.50;5.88;;;;;;;;;;4901842;29;20190;-75
2022/04/01 09:10:28;;;;;;;6.30;5.70;;;;;;;;;;4901404;29;20180;-74
2022/04/01 09:12:54;;;;;;;5.80;5.30;;;;;;;;;;4901656;29;20286;-76
2022/04/01 09:15:21;;;;;;;9.20;6.18;;;;;;;;;;4901594;29;20235;-75
2022/04/01 09:17:48;;;;;;;5.75;5.20;;;;;;;;;;4901568;29;20192;-75
2022/04/01 09:20:14;;;;;;;6.63;5.60;;;;;;;;;;4901380;29;20182;-75
2022/04/01 09:22:41;;;;;;;6.78;6.13;;;;;;;;;;4901296;29;20381;-78
2022/04/01 09:25:18;;;;;;;6.65;5.97;;;;;;;;;;4901345;29;20217;-74
2022/04/01 09:27:47;;;;;;;7.13;6.43;;;;;;;;;;4901362;29;20177;-73
2022/04/01 09:30:17;;;;;;;6.93;6.10;;;;;;;;;;4900879;29;20185;-75
2022/04/01 09:32:45;;;;;;;7.57;6.88;;;;;;;;;;4901478;29;20200;-76
2022/04/01 09:35:12;;;;;;;6.05;5.15;;;;;;;;;;4901684;29;20199;-74
2022/04/01 09:37:39;;;;;;;7.60;6.90;;;;;;;;;;4901554;29;20204;-75
2022/04/01 09:40:06;;;;;;;6.30;5.55;;;;;;;;;;4901216;29;20191;-78
2022/04/01 09:42:31;;;;;;;7.38;6.68;;;;;;;;;;4900707;29;20244;-75
2022/04/01 09:44:58;;;;;;;5.60;5.10;;;;;;;;;;4901121;29;20248;-75
2022/04/01 09:47:24;;;;;;;6.60;5.85;;;;;;;;;;4901430;29;20180;-74
2022/04/01 09:49:53;;;;;;;6.55;5.75;;;;;;;;;;4901255;29;20285;-74
2022/04/01 09:52:21;;;;;;;9.38;6.75;;;;;;;;;;4900544;29;20211;-74
2022/04/01 09:54:49;;;;;;;6.38;4.85;;;;;;;;;;4901120;29;20641;-77
2022/04/01 09:57:15;;;;;;;7.45;5.25;;;;;;;;;;4900949;29;20207;-75
2022/04/01 09:59:42;;;;;;;5.80;5.15;;;;;;;;;;4900969;29;20188;-75
2022/04/01 10:02:08;;;;;;;6.45;5.85;;;;;;;;;;4900130;29;20240;-74
2022/04/01 10:04:34;;;;;;;7.72;6.07;;;;;;;;;;4900899;29;20669;-76
2022/04/01 10:07:02;;;;;;;7.97;5.07;;;;;;;;;;4900576;29;20188;-74
2022/04/01 10:09:29;;;;;;;6.97;5.68;;;;;;;;;;4900713;29;20420;-75
2022/04/01 10:11:57;;;;;;;5.35;4.85;;;;;;;;;;4900262;29;20612;-75
2022/04/01 10:14:25;;;;;;;5.38;4.88;;;;;;;;;;4900587;29;20241;-75
2022/04/01 10:16:51;;;;;;;5.03;4.50;;;;;;;;;;4900573;29;20202;-75
2022/04/01 10:19:19;;;;;;;5.45;5.03;;;;;;;;;;4900425;29;20557;-77
2022/04/01 10:21:46;;;;;;;5.47;4.97;;;;;;;;;;4900028;29;20208;-76
2022/04/01 10:24:12;;;;;;;6.45;5.00;;;;;;;;;;4900335;29;20203;-78
2022/04/01 10:26:40;;;;;;;5.60;5.00;;;;;;;;;;4899095;29;20197;-74
2022/04/01 10:29:07;;;;;;;5.88;5.07;;;;;;;;;;4900396;29;20808;-76
2022/04/01 10:31:33;;;;;;;5.15;4.65;;;;;;;;;;4898553;29;20674;-77
2022/04/01 10:34:18;;;;;;;6.35;5.20;;;;;;;;;;4900204;29;20256;-74
2022/04/01 10:36:53;;;;;;;5.43;4.93;;;;;;;;;;4900255;29;20260;-73
2022/04/01 10:39:19;;;;;;;5.28;4.55;;;;;;;;;;4900091;29;20281;-74
2022/04/01 10:42:05;;;;;;;6.70;4.97;;;;;;;;;;4899557;29;20201;-74
2022/04/01 10:44:47;;;;;;;5.57;4.47;;;;;;;;;;4900214;29;20270;-76
2022/04/01 10:47:13;;;;;;;7.72;5.30;;;;;;;;;;4900259;29;20187;-75
2022/04/01 10:52:24;;;;;;;5.85;5.25;;;;;;;;;;4899638;29;20247;-75
2022/04/01 10:55:10;;;;;;;5.55;4.95;;;;;;;;;;4900031;29;20180;-76
2022/04/01 10:57:44;;;;;;;6.05;5.47;;;;;;;;;;4907683;29;20533;-75
2022/04/01 11:00:15;;;;;;;5.65;5.05;;;;;;;;;;4924687;29;20199;-75
2022/04/01 11:02:45;;;;;;;5.22;4.72;;;;;;;;;;4918468;29;20218;-78
2022/04/01 11:05:24;;;;;;;6.65;4.95;;;;;;;;;;4918527;29;20323;-75
2022/04/01 11:08:09;;;;;;;9.65;7.13;;;;;;;;;;4918490;29;20204;-76
2022/04/01 11:10:35;;;;;;;6.55;5.80;;;;;;;;;;4918175;29;20713;-75
2022/04/01 11:13:01;;;;;;;8.10;6.37;;;;;;;;;;4933096;29;20278;-76
2022/04/01 11:15:28;;;;;;;5.57;5.07;;;;;;;;;;4918138;29;20433;-75
2022/04/01 11:17:57;;;;;;;5.35;4.85;;;;;;;;;;4917442;29;20204;-74
2022/04/01 11:20:26;;;;;;;6.72;5.65;;;;;;;;;;4917810;29;20208;-77
2022/04/01 11:22:59;;;;;;;6.63;5.68;;;;;;;;;;4917668;29;20252;-74
2022/04/01 11:25:27;;;;;;;10.93;6.38;;;;;;;;;;4918006;29;20174;-77
2022/04/01 11:28:06;;;;;;;4.60;4.20;;;;;;;;;;4932434;29;20669;-76
2022/04/01 11:30:36;;;;;;;7.07;5.85;;;;;;;;;;4907568;29;20547;-74
2022/04/01 11:33:03;;;;;;;4.63;4.20;;;;;;;;;;4897782;29;20240;-75
2022/04/01 11:35:31;;;;;;;6.10;5.50;;;;;;;;;;4898926;29;20184;-75
2022/04/01 11:37:58;;;;;;;5.93;5.32;;;;;;;;;;4898866;29;20583;-74
2022/04/01 11:40:28;;;;;;;7.28;5.68;;;;;;;;;;4898459;29;20192;-75
2022/04/01 11:42:59;;;;;;;7.53;6.72;;;;;;;;;;4898722;29;20682;-77
2022/04/01 11:45:26;;;;;;;6.80;6.10;;;;;;;;;;4898703;29;20179;-77
2022/04/01 11:47:52;;;;;;;6.88;4.70;;;;;;;;;;4898742;29;20570;-76
2022/04/01 11:50:20;;;;;;;6.78;4.15;;;;;;;;;;4898050;29;20189;-76
2022/04/01 11:52:47;;;;;;;3.95;3.58;;;;;;;;;;4898474;29;20264;-75
2022/04/01 11:55:18;;;;;;;4.78;4.38;;;;;;;;;;4898440;29;20180;-74
2022/04/01 11:57:45;;;;;;;4.93;3.80;;;;;;;;;;4898867;29;20202;-74
2022/04/01 12:00:15;;;;;;;4.80;4.32;;;;;;;;;;4898560;29;20193;-74
2022/04/01 12:02:41;;;;;;;5.88;4.35;;;;;;;;;;4897378;29;20232;-74
2022/04/01 12:05:08;;;;;;;5.85;5.20;;;;;;;;;;4898818;29;20193;-75
2022/04/01 12:10:20;;;;;;;4.57;4.18;;;;;;;;;;4898553;29;20201;-77
2022/04/01 12:12:56;;;;;;;4.05;3.60;;;;;;;;;;4898381;29;20267;-76
2022/04/01 12:15:42;;;;;;;4.45;3.70;;;;;;;;;;4898526;29;20180;-76
2022/04/01 12:18:09;;;;;;;3.72;3.33;;;;;;;;;;4898450;29;20184;-75
2022/04/01 12:20:38;;;;;;;5.63;3.65;;;;;;;;;;4897806;29;20246;-74
2022/04/01 12:23:05;;;;;;;7.57;4.20;;;;;;;;;;4898088;29;20223;-75
2022/04/01 12:25:32;;;;;;;6.07;4.40;;;;;;;;;;4898053;29;20212;-77
2022/04/01 12:27:59;;;;;;;4.80;4.40;;;;;;;;;;4912756;29;20181;-76
2022/04/01 12:30:28;;;;;;;3.78;3.40;;;;;;;;;;4896989;29;20178;-77
2022/04/01 12:32:55;;;;;;;5.07;4.57;;;;;;;;;;4898017;29;20209;-74
2022/04/01 12:35:24;;;;;;;4.85;3.88;;;;;;;;;;4898091;29;20186;-75
2022/04/01 12:38:03;;;;;;;5.55;4.22;;;;;;;;;;4898174;29;20200;-75
2022/04/01 12:40:48;;;;;;;4.60;4.20;;;;;;;;;;4897779;29;20191;-75
2022/04/01 12:43:30;;;;;;;6.20;5.55;;;;;;;;;;4898073;29;20209;-76
2022/04/01 12:46:02;;;;;;;5.00;4.50;;;;;;;;;;4898062;29;20181;-78
2022/04/01 12:48:28;;;;;;;11.50;7.43;;;;;;;;;;4898309;29;20184;-75
2022/04/01 12:51:03;;;;;;;6.25;5.65;;;;;;;;;;4897846;29;20282;-76
2022/04/01 12:53:31;;;;;;;5.80;4.97;;;;;;;;;;4898120;29;20671;-74
2022/04/01 12:56:17;;;;;;;7.68;6.05;;;;;;;;;;4898158;29;20184;-76
2022/04/01 12:58:50;;;;;;;13.68;7.28;;;;;;;;;;4898060;29;20232;-74
2022/04/01 13:01:19;;;;;;;5.40;4.90;;;;;;;;;;4897526;29;20197;-74
2022/04/01 13:03:48;;;;;;;6.30;4.50;;;;;;;;;;4897660;29;20275;-76
2022/04/01 13:06:15;;;;;;;4.57;4.18;;;;;;;;;;4897845;29;20245;-76
2022/04/01 13:08:42;;;;;;;5.18;4.68;;;;;;;;;;4897764;29;20185;-74
2022/04/01 13:11:14;;;;;;;5.15;4.32;;;;;;;;;;4897332;29;20192;-74
2022/04/01 13:13:52;;;;;;;4.88;4.10;;;;;;;;;;4912283;29;20197;-76
2022/04/01 13:16:18;;;;;;;3.95;3.65;;;;;;;;;;4897672;29;20764;-78
2022/04/01 13:18:44;;;;;;;5.60;4.23;;;;;;;;;;4897935;29;20268;-74
2022/04/01 13:21:10;;;;;;;4.57;3.93;;;;;;;;;;4911804;29;20452;-77
2022/04/01 13:23:36;;;;;;;5.05;4.30;;;;;;;;;;4897714;29;20966;-76
2022/04/01 13:26:02;;;;;;;4.50;3.93;;;;;;;;;;4897620;29;20194;-75
2022/04/01 13:28:28;;;;;;;4.38;4.07;;;;;;;;;;4897651;29;20937;-77
2022/04/01 13:30:54;;;;;;;4.93;4.40;;;;;;;;;;4897085;29;20205;-77
2022/04/01 13:33:20;;;;;;;3.85;3.38;;;;;;;;;;4897540;29;20199;-78
2022/04/01 13:35:46;;;;;;;4.47;4.03;;;;;;;;;;4897725;29;20645;-77
2022/04/01 13:38:12;;;;;;;4.80;3.83;;;;;;;;;;4897720;29;20274;-77
2022/04/01 13:40:38;;;;;;;4.93;4.43;;;;;;;;;;4898668;29;20211;-75
2022/04/01 13:43:04;;;;;;;3.75;3.40;;;;;;;;;;4901142;29;20777;-74
2022/04/01 13:45:33;;;;;;;4.45;4.05;;;;;;;;;;4901278;29;20198;-77
2022/04/01 13:47:59;;;;;;;4.20;3.80;;;;;;;;;;4901094;29;20536;-77
2022/04/01 13:50:25;;;;;;;4.30;3.90;;;;;;;;;;4900677;29;20185;-76
2022/04/01 13:52:51;;;;;;;6.07;3.80;;;;;;;;;;4900803;29;20804;-76
2022/04/01 13:55:17;;;;;;;4.07;3.70;;;;;;;;;;4900931;29;20181;-77
2022/04/01 13:57:43;;;;;;;6.10;4.50;;;;;;;;;;4901027;29;20507;-78
2022/04/01 14:00:09;;;;;;;4.00;3.60;;;;;;;;;;4900842;29;20265;-78
2022/04/01 14:02:36;;;;;;;5.25;4.45;;;;;;;;;;4900650;29;20573;-77
2022/04/01 14:05:02;;;;;;;4.72;4.22;;;;;;;;;;4900952;29;20190;-74
2022/04/01 14:07:28;;;;;;;6.18;5.68;;;;;;;;;;4900877;29;20519;-78
2022/04/01 14:09:54;;;;;;;4.57;4.17;;;;;;;;;;4900925;29;20254;-74
2022/04/01 14:12:20;;;;;;;4.63;4.10;;;;;;;;;;4900481;29;20442;-76
2022/04/01 14:14:46;;;;;;;4.30;3.90;;;;;;;;;;4900539;29;20429;-77
2022/04/01 14:17:12;;;;;;;8.70;4.20;;;;;;;;;;4900445;29;20425;-74
2022/04/01 14:19:38;;;;;;;4.60;4.10;;;;;;;;;;4900547;29;20186;-78
2022/04/01 14:22:04;;;;;;;4.30;3.90;;;;;;;;;;4900165;29;20620;-74
2022/04/01 14:24:30;;;;;;;4.85;4.40;;;;;;;;;;4900351;29;20663;-75
2022/04/01 14:26:57;;;;;;;6.40;5.20;;;;;;;;;;4900408;29;20549;-77
2022/04/01 14:32:08;;;;;;;6.47;4.45;;;;;;;;;;4899908;29;20243;-78
2022/04/01 14:34:36;;;;;;;5.97;4.32;;;;;;;;;;4900304;29;20208;-76
2022/04/01 14:37:02;;;;;;;7.18;5.05;;;;;;;;;;4900154;29;20588;-75
2022/04/01 14:39:29;;;;;;;4.70;3.92;;;;;;;;;;4899837;29;20182;-75
2022/04/01 14:41:56;;;;;;;6.23;4.50;;;;;;;;;;4899579;29;20271;-77
2022/04/01 14:44:22;;;;;;;8.82;5.00;;;;;;;;;;4900108;29;20227;-77
2022/04/01 14:46:49;;;;;;;6.20;4.60;;;;;;;;;;4900340;29;20215;-78
2022/04/01 14:49:15;;;;;;;5.32;4.63;;;;;;;;;;4899903;29;20185;-77
2022/04/01 14:51:41;;;;;;;8.73;4.85;;;;;;;;;;4913138;29;20211;-78